createdAt,value
2018-06-14T09:04:54.225Z,13.32
2018-06-14T09:07:24.087Z,5.70
2018-06-14T09:09:53.137Z,6.90
2018-06-14T09:12:22.159Z,5.43
2018-06-14T09:14:51.269Z,3.50
2018-06-14T09:17:20.325Z,5.67
2018-06-14T09:19:49.340Z,4.37
2018-06-14T09:22:18.423Z,4.00
2018-06-14T09:24:47.675Z,5.90
2018-06-14T09:27:16.746Z,4.63
2018-06-14T09:29:45.742Z,5.93
2018-06-14T09:32:14.783Z,3.63
2018-06-14T09:34:43.818Z,4.93
2018-06-14T09:37:12.862Z,5.00
2018-06-14T09:39:41.906Z,3.50
2018-06-14T09:42:10.951Z,4.07
2018-06-14T09:44:39.965Z,4.83
2018-06-14T09:47:08.947Z,6.27
2018-06-14T09:49:40.810Z,4.93
2018-06-14T09:52:11.558Z,4.37
2018-06-14T09:54:50.986Z,6.10
2018-06-14T09:57:20.020Z,6.80
2018-06-14T09:59:49.011Z,3.67
2018-06-14T10:02:18.139Z,4.40
2018-06-14T10:04:47.179Z,6.63
2018-06-14T10:07:16.193Z,5.27
2018-06-14T10:09:45.249Z,4.63
2018-06-14T10:12:14.239Z,4.47
2018-06-14T10:14:43.233Z,5.73
2018-06-14T10:17:12.211Z,5.47
2018-06-14T10:19:41.201Z,4.43
2018-06-14T10:22:10.240Z,7.20
2018-06-14T10:24:39.312Z,6.37
2018-06-14T10:27:08.310Z,5.37
2018-06-14T10:29:37.647Z,6.93
2018-06-14T10:32:06.653Z,7.83
2018-06-14T10:34:35.755Z,6.27
2018-06-14T10:37:04.745Z,5.60
2018-06-14T10:39:33.752Z,7.13
2018-06-14T10:42:02.831Z,6.43
2018-06-14T10:44:31.835Z,6.10
2018-06-14T10:47:00.835Z,8.23
2018-06-14T10:49:29.858Z,6.30
2018-06-14T10:51:58.949Z,5.57
2018-06-14T10:54:43.868Z,5.00
2018-06-14T10:57:12.879Z,7.20
2018-06-14T10:59:41.894Z,9.30
2018-06-14T11:02:10.881Z,7.87
2018-06-14T11:04:39.964Z,7.33
2018-06-14T11:07:08.977Z,9.20
2018-06-14T11:09:37.990Z,8.10
2018-06-14T11:12:07.059Z,9.13
2018-06-14T11:14:36.053Z,8.63
2018-06-14T11:17:05.069Z,10.40
2018-06-14T11:19:34.069Z,9.67
2018-06-14T11:22:03.186Z,10.07
2018-06-14T11:24:32.221Z,10.03
2018-06-14T11:27:01.254Z,9.30
2018-06-14T11:29:30.266Z,11.40
2018-06-14T11:31:59.455Z,9.40
2018-06-14T11:34:28.574Z,9.67
2018-06-14T11:36:57.566Z,9.20
2018-06-14T11:39:26.673Z,10.70
2018-06-14T11:41:56.051Z,11.07
2018-06-14T11:44:26.714Z,9.73
2018-06-14T11:46:55.767Z,10.27
2018-06-14T11:49:24.880Z,9.87
2018-06-14T11:51:53.891Z,10.30
2018-06-14T11:54:22.883Z,10.57
2018-06-14T11:56:51.913Z,10.07
2018-06-14T11:59:20.885Z,10.13
2018-06-14T12:01:49.953Z,10.00
2018-06-14T12:04:18.842Z,9.20
2018-06-14T12:06:47.823Z,10.13
2018-06-14T12:09:17.018Z,9.67
2018-06-14T12:11:46.016Z,8.60
2018-06-14T12:14:15.039Z,9.53
2018-06-14T12:16:44.139Z,9.77
2018-06-14T12:19:13.131Z,8.93
2018-06-14T12:21:42.140Z,7.83
2018-06-14T12:24:11.098Z,9.13
2018-06-14T12:26:40.130Z,8.43
2018-06-14T12:29:09.136Z,9.85
2018-06-14T12:31:38.218Z,7.87
2018-06-14T12:34:07.190Z,8.70
2018-06-14T12:36:36.311Z,7.73
2018-06-14T12:39:07.510Z,8.50
2018-06-14T12:41:36.539Z,8.97
2018-06-14T12:44:05.561Z,10.00
2018-06-14T12:46:34.612Z,8.43
2018-06-14T12:49:04.026Z,8.67
2018-06-14T12:51:33.407Z,8.17
2018-06-14T12:54:02.717Z,8.83
2018-06-14T12:56:31.734Z,7.67
2018-06-14T12:59:00.730Z,10.40
2018-06-14T13:01:29.859Z,9.63
2018-06-14T13:03:58.869Z,7.47
2018-06-14T13:06:27.819Z,9.33
2018-06-14T13:08:56.842Z,9.73
2018-06-14T13:11:26.262Z,8.83
2018-06-14T13:13:55.254Z,8.17
2018-06-14T13:16:24.278Z,8.97
2018-06-14T13:18:53.280Z,7.37
2018-06-14T13:21:22.278Z,8.47
2018-06-14T13:23:51.280Z,9.13
2018-06-14T13:26:20.290Z,7.93
2018-06-14T13:28:49.299Z,6.40
2018-06-14T13:31:18.796Z,6.97
2018-06-14T13:33:47.793Z,6.33
2018-06-14T13:36:21.332Z,6.47
2018-06-14T13:38:50.415Z,7.50
2018-06-14T13:41:19.414Z,8.03
2018-06-14T13:43:48.414Z,8.93
2018-06-14T13:46:17.478Z,7.57
2018-06-14T13:48:46.529Z,6.63
2018-06-14T13:51:15.520Z,7.53
2018-06-14T13:53:44.513Z,8.17
2018-06-14T13:56:13.539Z,7.53
2018-06-14T13:58:42.528Z,6.90
2018-06-14T14:01:11.663Z,8.17
2018-06-14T14:03:40.573Z,7.27
2018-06-14T14:06:09.553Z,5.37
2018-06-14T14:08:38.635Z,6.60
2018-06-14T14:11:07.589Z,6.80
2018-06-14T14:13:36.581Z,7.05
2018-06-14T14:16:05.615Z,6.47
2018-06-14T14:18:34.593Z,7.37
2018-06-14T14:21:04.046Z,6.07
2018-06-14T14:23:33.108Z,5.20
2018-06-14T14:26:02.121Z,5.50
2018-06-14T14:28:31.196Z,5.67
2018-06-14T14:31:00.738Z,4.53
2018-06-14T14:33:29.779Z,5.62
2018-06-14T14:35:58.842Z,8.28
2018-06-14T14:38:28.387Z,5.00
2018-06-14T14:40:57.382Z,5.33
2018-06-14T14:43:26.402Z,5.33
2018-06-14T14:45:55.434Z,6.25
2018-06-14T14:48:24.478Z,4.83
2018-06-14T14:50:53.465Z,5.92
2018-06-14T14:53:22.541Z,4.87
2018-06-14T14:55:51.501Z,4.47
2018-06-14T14:58:20.509Z,4.63
2018-06-14T15:00:49.824Z,6.17
2018-06-14T15:03:18.882Z,5.00
2018-06-14T15:05:47.863Z,5.20
2018-06-14T15:08:17.046Z,6.58
2018-06-14T15:10:46.011Z,5.45
2018-06-14T15:13:15.038Z,5.85
2018-06-14T15:15:43.999Z,4.70
2018-06-14T15:18:13.257Z,6.45
2018-06-14T15:20:42.217Z,6.27
2018-06-14T15:23:11.326Z,5.47
2018-06-14T15:25:40.387Z,5.43
2018-06-14T15:28:09.411Z,8.27
2018-06-14T15:30:38.464Z,5.17
2018-06-14T15:33:07.532Z,4.83
2018-06-14T15:35:36.556Z,6.40
2018-06-14T15:38:05.560Z,5.60
2018-06-14T15:40:34.547Z,6.10
2018-06-14T15:43:03.664Z,5.13
2018-06-14T15:45:32.632Z,5.20
2018-06-14T15:48:01.668Z,4.47
2018-06-14T15:50:30.751Z,5.00
2018-06-14T15:52:59.834Z,4.80
2018-06-14T15:56:00.546Z,4.83
2018-06-14T15:58:30.819Z,4.10
2018-06-14T16:01:00.030Z,5.55
2018-06-14T16:03:29.359Z,5.08
2018-06-14T16:05:58.364Z,4.87
2018-06-14T16:25:39.624Z,4.80
2018-06-14T16:28:08.528Z,4.77
2018-06-14T16:30:39.302Z,5.93
2018-06-14T16:33:09.010Z,5.83
2018-06-14T16:35:38.053Z,5.30
2018-06-14T16:38:07.375Z,4.90
2018-06-14T16:40:36.272Z,5.57
2018-06-14T16:46:19.650Z,6.40
2018-06-14T16:48:49.920Z,5.50
2018-06-14T16:51:22.315Z,4.97
2018-06-14T16:53:51.234Z,4.27
2018-06-14T16:56:21.104Z,6.50
2018-06-14T17:27:34.736Z,4.93
2018-06-14T17:30:04.229Z,5.13
2018-06-14T17:32:33.212Z,4.33
2018-06-14T17:35:02.154Z,3.83
2018-06-14T17:37:31.020Z,6.43
2018-06-14T17:39:59.932Z,4.73
2018-06-14T17:42:28.968Z,4.77
2018-06-14T17:44:57.940Z,3.97
2018-06-14T17:47:26.929Z,4.90
2018-06-14T17:49:55.864Z,4.53
2018-06-14T17:52:24.787Z,4.60
2018-06-14T17:54:53.693Z,4.13
2018-06-14T17:57:22.648Z,5.30
2018-06-14T17:59:51.547Z,4.90
2018-06-14T18:02:20.552Z,4.47
2018-06-14T18:04:49.502Z,5.30
2018-06-14T18:07:18.563Z,6.10
2018-06-14T18:09:48.028Z,4.40
2018-06-14T18:12:17.104Z,4.03
2018-06-14T18:14:46.096Z,3.70
2018-06-14T18:17:15.161Z,4.20
2018-06-14T18:19:44.087Z,6.20
2018-06-14T18:22:13.043Z,4.70
2018-06-14T18:24:41.993Z,5.07
2018-06-14T18:27:10.940Z,4.40
2018-06-14T18:29:39.856Z,5.37
2018-06-14T18:32:12.465Z,4.53
2018-06-14T18:34:42.366Z,4.57
2018-06-14T18:37:11.295Z,8.17
2018-06-14T18:39:40.283Z,6.80
2018-06-14T18:42:09.284Z,5.13
2018-06-14T18:44:38.255Z,3.60
2018-06-14T18:47:07.173Z,4.00
2018-06-14T18:49:36.182Z,4.20
2018-06-14T18:52:05.272Z,5.37
2018-06-14T18:54:34.187Z,5.37
2018-06-14T18:57:03.192Z,5.00
2018-06-14T18:59:32.167Z,5.17
2018-06-14T19:02:01.092Z,5.60
2018-06-14T19:04:30.055Z,5.83
2018-06-14T19:06:59.102Z,4.87
2018-06-14T19:09:28.011Z,8.33
2018-06-14T19:11:56.993Z,4.60
2018-06-14T19:14:25.948Z,5.37
2018-06-14T19:16:54.900Z,5.90
2018-06-14T19:19:23.827Z,5.30
2018-06-14T19:21:52.765Z,6.10
2018-06-14T19:24:21.782Z,6.90
2018-06-14T19:26:50.711Z,6.57
2018-06-14T19:29:19.677Z,4.60
2018-06-14T19:31:48.677Z,5.30
2018-06-14T19:34:17.619Z,6.97
2018-06-14T19:36:46.512Z,5.43
2018-06-14T19:39:15.625Z,5.30
2018-06-14T19:41:44.540Z,7.47
2018-06-14T19:44:13.586Z,7.10
2018-06-14T19:46:42.564Z,8.00
2018-06-14T19:49:11.539Z,6.17
2018-06-14T19:51:40.506Z,6.43
2018-06-14T19:54:09.415Z,6.13
2018-06-14T20:03:36.048Z,8.03
2018-06-14T20:06:05.101Z,7.80
2018-06-14T20:08:34.055Z,7.80
2018-06-14T20:11:03.062Z,8.00
2018-06-14T20:13:32.122Z,8.50
2018-06-14T20:16:01.082Z,7.67
2018-06-14T20:18:30.047Z,6.97
2018-06-14T20:20:59.101Z,8.20
2018-06-14T20:23:28.178Z,9.67
2018-06-14T20:25:57.145Z,7.13
2018-06-14T20:28:26.139Z,6.37
2018-06-14T20:30:55.261Z,8.43
2018-06-14T20:33:24.212Z,6.97
2018-06-14T20:35:53.169Z,7.10
2018-06-14T20:38:22.168Z,7.20
2018-06-14T20:40:51.141Z,5.70
2018-06-14T20:43:20.108Z,6.60
2018-06-14T20:45:49.284Z,5.80
2018-06-14T20:48:18.278Z,8.93
2018-06-14T20:50:47.241Z,6.30
2018-06-14T20:53:16.225Z,7.03
2018-06-14T20:55:45.215Z,6.97
2018-06-14T20:58:14.262Z,6.90
2018-06-14T21:00:43.264Z,6.87
2018-06-14T21:03:12.349Z,8.90
2018-06-14T21:05:41.343Z,6.73
2018-06-14T21:08:10.397Z,7.53
2018-06-14T21:10:39.479Z,7.80
2018-06-14T21:13:08.464Z,7.70
2018-06-14T21:15:37.487Z,8.47
2018-06-14T21:18:06.439Z,9.70
2018-06-14T21:20:35.427Z,8.33
2018-06-14T21:23:04.529Z,9.50
2018-06-14T21:25:33.525Z,20.63
2018-06-14T21:28:02.546Z,10.20
2018-06-14T21:30:31.526Z,11.70
2018-06-14T21:33:00.499Z,17.23
2018-06-14T21:35:29.650Z,11.50
2018-06-14T21:37:58.714Z,11.67
2018-06-14T21:40:27.771Z,11.60
2018-06-14T21:42:56.761Z,12.17
2018-06-14T21:45:25.739Z,12.23
2018-06-14T21:47:54.722Z,13.03
2018-06-14T21:50:23.710Z,13.13
2018-06-14T21:52:52.686Z,11.80
2018-06-14T21:55:21.677Z,14.57
2018-06-14T21:57:50.750Z,13.43
2018-06-14T22:00:21.784Z,12.87
2018-06-14T22:02:56.120Z,13.47
2018-06-14T22:05:25.101Z,14.53
2018-06-14T22:07:54.110Z,12.77
2018-06-14T22:10:23.117Z,12.07
2018-06-14T22:12:52.104Z,16.00
2018-06-14T22:15:21.286Z,16.13
2018-06-14T22:17:50.730Z,14.37
2018-06-14T22:20:19.750Z,14.27
2018-06-14T22:22:48.738Z,15.93
2018-06-14T22:25:17.854Z,16.47
2018-06-14T22:27:46.878Z,15.23
2018-06-14T22:30:16.450Z,16.60
2018-06-14T22:32:46.403Z,15.90
2018-06-14T22:35:26.955Z,16.87
2018-06-14T22:37:56.388Z,15.73
2018-06-14T22:40:26.049Z,15.97
2018-06-14T22:42:55.007Z,14.70
2018-06-14T22:45:24.010Z,15.47
2018-06-14T22:47:52.972Z,16.23
2018-06-14T22:50:33.512Z,17.00
2018-06-14T22:53:04.933Z,17.03
2018-06-14T22:55:33.918Z,16.63
2018-06-14T22:58:02.909Z,16.23
2018-06-14T23:01:50.643Z,17.37
2018-06-14T23:04:23.967Z,16.40
2018-06-14T23:06:52.992Z,16.33
2018-06-14T23:10:35.324Z,15.57
2018-06-14T23:13:04.934Z,16.87
2018-06-14T23:15:34.128Z,17.20
2018-06-14T23:18:03.128Z,17.40
2018-06-14T23:20:32.998Z,19.50
2018-06-14T23:23:02.568Z,16.70
2018-06-14T23:25:32.212Z,17.93
2018-06-14T23:28:01.189Z,16.83
2018-06-14T23:30:30.279Z,16.30
2018-06-14T23:32:59.429Z,16.73
2018-06-14T23:35:28.558Z,17.60
2018-06-14T23:37:57.577Z,20.17
2018-06-14T23:40:26.573Z,18.80
2018-06-14T23:42:55.544Z,16.97
2018-06-14T23:45:24.626Z,16.27
2018-06-14T23:47:53.739Z,16.40
2018-06-14T23:50:22.715Z,16.87
2018-06-14T23:52:51.911Z,16.97
2018-06-14T23:55:20.907Z,18.00
2018-06-14T23:57:49.910Z,17.73
